Accueil
METAR-TAF:

METAR-TAF

Aéroports :

Aéroport d'Oujda-Angads

Oujda, Maroc

latitude: 34-47N, longitude: 001-56W, altitude: 468 m

Observation

Le bulletin a été fait il y a 18 minutes, à 11:00 UTC
Vent 5 kt de nord/nord-ouest, variant entre ouest et nord/nord-est
Température 26°C
Humidité 34%
Pression 1018 hPa
Visibilité 10 km ou plus
pas de nuages en-dessous de 1500 mètres et pas de cumulonimbus.

METAR: GMFO 141100Z 34005KT 280V020 CAVOK 26/09 Q1018 NOSIG

Heure: 11:18 (11:18 UTC)

Prévision

Le bulletin a été fait il y a 6 heures et 18 minutes, à 05:00 UTC
Prévision valable du 14 à 06 UTC au 15 à 12 UTC
Vent 4 kt de sud/sud-ouest
Visibilité 10 km ou plus
pas de nuages en-dessous de 1500 mètres et pas de cumulonimbus.
Temporairement
du 14 à 10 UTC au 14 à 21 UTC
Vent 12 kt de nord/nord-ouest

TAF: GMFO 140500Z 1406/1512 20004KT CAVOK TEMPO 1410/1421 33012KT

Observations et prévisions météorologiques de plus de 4000 aéroports (messages METAR et TAF).

Les stations disponibles sont représentées par des disques jaunes et rouges sur la carte.

Passer la souris dessus pour voir le nom de la station.

Cliquer dessus pour voir les observations et prévisions météorologiques.

Pour changer de carte: cliquez sur les boutons verts avec une croix noire pour zoomer, sur le bouton vert avec un tiret pour effectuer un zoom arrière, ou sur les flèches vertes pour les cartes adjacentes.


METAR-TAF: